Time;durP1;ratioP1;P1;durP2;ratioP2;P2;SDS_P1;SDS_P2;PMS_P1;PMS_P2;Temp;Humidity;BMP_temperature;BMP_pressure;BME280_temperature;BME280_humidity;BME280_pressure;Samples;Min_cycle;Max_cycle;Signal;HPM_P1;HPM_P2
2023/09/01 00:00:59;;;;;;;3.30;3.10;;;;;;;13.80;91.25;100150.50;5050342;28;20207;-74
2023/09/01 00:03:25;;;;;;;3.00;2.80;;;;;;;13.75;91.61;100141.91;5049831;28;20715;-74
2023/09/01 00:05:52;;;;;;;6.57;3.30;;;;;;;13.69;91.48;100141.22;5051308;28;20215;-74
2023/09/01 00:08:18;;;;;;;3.40;3.20;;;;;;;13.61;91.74;100138.03;5052104;28;20208;-74
2023/09/01 00:10:46;;;;;;;3.60;3.30;;;;;;;13.64;91.91;100130.06;5054214;28;20209;-74
2023/09/01 00:13:14;;;;;;;5.63;3.13;;;;;;;13.65;92.07;100129.13;5053560;28;20225;-74
2023/09/01 00:15:40;;;;;;;5.57;3.47;;;;;;;13.62;92.22;100126.66;5054520;28;20217;-74
2023/09/01 00:18:07;;;;;;;3.20;2.83;;;;;;;13.66;92.26;100125.63;5054830;28;20213;-74
2023/09/01 00:20:34;;;;;;;3.20;3.00;;;;;;;13.65;92.54;100116.03;5054928;28;20741;-73
2023/09/01 00:23:01;;;;;;;4.17;3.63;;;;;;;13.66;92.04;100123.00;5054485;28;20259;-74
2023/09/01 00:25:27;;;;;;;3.40;3.10;;;;;;;13.64;92.01;100127.44;5054920;28;20205;-73
2023/09/01 00:27:54;;;;;;;3.40;3.10;;;;;;;13.65;92.19;100128.28;5054482;28;20209;-73
2023/09/01 00:30:22;;;;;;;3.87;3.53;;;;;;;13.62;92.26;100131.03;5054442;28;20217;-74
2023/09/01 00:32:48;;;;;;;3.60;3.20;;;;;;;13.61;92.39;100129.31;5054297;28;20243;-74
2023/09/01 00:35:15;;;;;;;4.73;4.27;;;;;;;13.59;92.08;100131.97;5054512;28;20236;-74
2023/09/01 00:37:41;;;;;;;4.70;3.83;;;;;;;13.63;92.18;100128.34;5054096;28;20714;-74
2023/09/01 00:40:09;;;;;;;4.63;3.43;;;;;;;13.64;92.54;100124.81;5054357;28;20201;-74
2023/09/01 00:42:35;;;;;;;3.50;3.17;;;;;;;13.59;92.55;100118.03;5054093;28;20229;-74
2023/09/01 00:45:02;;;;;;;4.17;3.27;;;;;;;13.66;92.18;100111.66;5054259;28;20296;-74
2023/09/01 00:47:30;;;;;;;3.17;2.97;;;;;;;13.68;91.66;100120.31;5053829;28;20205;-74
2023/09/01 00:49:57;;;;;;;5.00;3.93;;;;;;;13.57;92.80;100112.84;5054101;28;20212;-73
2023/09/01 00:52:24;;;;;;;3.33;3.13;;;;;;;13.58;93.05;100104.06;5053877;28;20233;-74
2023/09/01 00:54:51;;;;;;;4.90;4.20;;;;;;;13.54;93.06;100096.34;5054055;28;20220;-74
2023/09/01 00:57:17;;;;;;;3.97;3.63;;;;;;;13.56;93.70;100087.53;5053500;28;20244;-73
2023/09/01 00:59:44;;;;;;;3.50;3.30;;;;;;;13.61;93.62;100092.59;5053330;28;20218;-73
2023/09/01 01:02:10;;;;;;;4.43;3.43;;;;;;;13.63;93.12;100096.03;5053508;28;20228;-73
2023/09/01 01:04:38;;;;;;;4.20;3.90;;;;;;;13.61;93.15;100097.84;5053749;28;20209;-73
2023/09/01 01:07:13;;;;;;;4.00;3.60;;;;;;;13.62;93.38;100084.69;5053740;28;20553;-73
2023/09/01 01:09:48;;;;;;;3.87;3.60;;;;;;;13.60;93.45;100086.50;5053743;28;20219;-74
2023/09/01 01:12:22;;;;;;;4.57;4.27;;;;;;;13.59;93.42;100086.56;5053477;28;20254;-73
2023/09/01 01:14:53;;;;;;;3.87;3.47;;;;;;;13.53;94.11;100074.53;5053450;28;20216;-75
2023/09/01 01:17:21;;;;;;;4.07;3.67;;;;;;;13.53;94.74;100061.41;5053472;28;20232;-74
2023/09/01 01:19:51;;;;;;;3.53;3.23;;;;;;;13.57;94.48;100057.75;5052107;28;20216;-75
2023/09/01 01:22:29;;;;;;;4.33;3.33;;;;;;;13.57;94.28;100065.63;5053356;28;20235;-74
2023/09/01 01:24:58;;;;;;;4.83;4.43;;;;;;;13.50;94.96;100058.91;5053702;28;20213;-74
2023/09/01 01:27:25;;;;;;;4.60;4.20;;;;;;;13.51;95.26;100052.75;5053585;28;20204;-74
2023/09/01 01:29:51;;;;;;;4.20;3.80;;;;;;;13.57;95.25;100067.41;5053281;28;20578;-74
2023/09/01 01:32:18;;;;;;;4.20;3.90;;;;;;;13.57;94.98;100065.63;5053271;28;20612;-74
2023/09/01 01:34:54;;;;;;;5.47;3.93;;;;;;;13.56;95.15;100069.19;5053309;28;20201;-74
2023/09/01 01:37:30;;;;;;;5.00;3.70;;;;;;;13.61;94.83;100077.72;5053186;28;20267;-74
2023/09/01 01:40:00;;;;;;;4.57;4.17;;;;;;;13.62;94.97;100068.09;5053345;28;20211;-73
2023/09/01 01:42:30;;;;;;;3.77;3.47;;;;;;;13.62;95.11;100081.22;5053051;28;20235;-74
2023/09/01 01:44:59;;;;;;;4.23;3.83;;;;;;;13.59;95.49;100066.41;5053145;28;20227;-73
2023/09/01 01:47:25;;;;;;;4.00;3.70;;;;;;;13.67;95.25;100071.38;5052584;28;20211;-73
2023/09/01 01:49:52;;;;;;;3.67;3.37;;;;;;;13.72;95.02;100079.09;5052710;28;20689;-73
2023/09/01 01:52:18;;;;;;;4.10;3.80;;;;;;;13.69;95.04;100074.81;5052564;28;20233;-73
2023/09/01 01:54:45;;;;;;;4.23;3.60;;;;;;;13.69;94.71;100080.91;5052943;28;20220;-73
2023/09/01 01:57:14;;;;;;;3.40;3.10;;;;;;;13.70;94.76;100080.00;5052880;28;20240;-74
2023/09/01 01:59:41;;;;;;;4.17;3.60;;;;;;;13.70;94.95;100081.78;5052398;28;20745;-75
2023/09/01 02:02:07;;;;;;;4.13;3.67;;;;;;;13.73;94.63;100084.25;5052162;28;20610;-74
2023/09/01 02:04:34;;;;;;;5.80;4.00;;;;;;;13.67;95.10;100076.63;5052805;28;20215;-74
2023/09/01 02:07:00;;;;;;;4.90;4.50;;;;;;;13.74;94.84;100082.53;5052606;28;20203;-74
2023/09/01 02:09:27;;;;;;;5.07;4.30;;;;;;;13.76;94.43;100086.78;5052650;28;20207;-74
2023/09/01 02:11:54;;;;;;;5.83;4.80;;;;;;;13.74;94.90;100085.13;5052186;28;20232;-74
2023/09/01 02:14:22;;;;;;;3.90;3.60;;;;;;;13.72;94.94;100086.97;5052388;28;20220;-74
2023/09/01 02:16:49;;;;;;;4.10;3.80;;;;;;;13.73;95.26;100079.03;5052938;28;20235;-74
2023/09/01 02:19:15;;;;;;;4.17;3.40;;;;;;;13.73;95.50;100071.16;5052972;28;20222;-74
2023/09/01 02:21:44;;;;;;;4.37;3.23;;;;;;;13.73;95.30;100071.16;5052489;28;20577;-73
2023/09/01 02:24:11;;;;;;;3.60;3.30;;;;;;;13.74;95.09;100075.50;5053431;28;20208;-73
2023/09/01 02:26:38;;;;;;;4.13;3.60;;;;;;;13.76;95.07;100083.31;5052988;28;20221;-74
2023/09/01 02:29:05;;;;;;;3.87;3.20;;;;;;;13.73;95.00;100083.41;5053133;28;20215;-74
2023/09/01 02:31:32;;;;;;;4.50;3.80;;;;;;;13.70;95.24;100087.03;5052229;28;20218;-73
2023/09/01 02:33:59;;;;;;;6.70;5.40;;;;;;;13.74;94.64;100086.00;5052021;28;20208;-74
2023/09/01 02:36:29;;;;;;;4.27;3.97;;;;;;;13.77;94.51;100103.38;5052136;28;20203;-73
2023/09/01 02:38:57;;;;;;;4.23;3.93;;;;;;;13.76;94.15;100107.78;5052002;28;20212;-73
2023/09/01 02:41:24;;;;;;;4.00;3.70;;;;;;;13.77;94.73;100098.13;5051954;28;20208;-74
2023/09/01 02:43:51;;;;;;;4.00;3.60;;;;;;;13.76;94.34;100110.41;5052112;28;20237;-74
2023/09/01 02:46:18;;;;;;;3.93;3.63;;;;;;;13.74;94.88;100112.22;5052071;28;20232;-74
2023/09/01 02:48:46;;;;;;;3.50;3.23;;;;;;;13.74;94.88;100108.75;5051810;28;20676;-74
2023/09/01 02:51:13;;;;;;;3.63;3.33;;;;;;;13.70;94.60;100106.22;5051802;28;20224;-74
2023/09/01 02:53:39;;;;;;;3.90;3.70;;;;;;;13.70;95.01;100100.13;5051643;28;20780;-73
2023/09/01 02:56:06;;;;;;;5.43;3.50;;;;;;;13.72;95.40;100089.59;5051985;28;20221;-74
2023/09/01 02:58:33;;;;;;;3.80;3.40;;;;;;;13.68;95.46;100087.06;5051834;28;20225;-74
2023/09/01 03:01:07;;;;;;;3.80;3.50;;;;;;;13.70;94.92;100095.75;5051883;28;20220;-73
2023/09/01 03:03:34;;;;;;;4.70;3.97;;;;;;;13.65;94.50;100104.69;5051572;28;20278;-74
2023/09/01 03:06:03;;;;;;;3.87;3.57;;;;;;;13.62;94.71;100108.28;5051673;28;20678;-74
2023/09/01 03:08:29;;;;;;;3.47;3.20;;;;;;;13.62;94.38;100110.06;5051382;28;20255;-74
2023/09/01 03:10:56;;;;;;;4.27;3.77;;;;;;;13.60;94.38;100110.09;5051716;28;20230;-74
2023/09/01 03:13:22;;;;;;;6.20;3.87;;;;;;;13.61;94.37;100117.03;5051155;28;20235;-74
2023/09/01 03:15:49;;;;;;;3.47;3.20;;;;;;;13.56;94.27;100112.88;5051888;28;20207;-73
2023/09/01 03:18:15;;;;;;;3.53;3.33;;;;;;;13.56;94.18;100110.25;5051422;28;20223;-73
2023/09/01 03:20:42;;;;;;;4.60;4.27;;;;;;;13.55;94.77;100114.66;5051318;28;20205;-73
2023/09/01 03:23:10;;;;;;;4.27;3.97;;;;;;;13.54;94.48;100105.09;5051693;28;20224;-73
2023/09/01 03:25:36;;;;;;;4.43;4.10;;;;;;;13.53;94.37;100113.84;5051548;28;20201;-74
2023/09/01 03:28:03;;;;;;;4.40;3.83;;;;;;;13.54;94.36;100118.19;5051682;28;20205;-74
2023/09/01 03:30:30;;;;;;;4.70;4.30;;;;;;;13.51;94.09;100118.31;5051578;28;20208;-73
2023/09/01 03:32:57;;;;;;;4.33;4.03;;;;;;;13.45;94.22;100122.00;5051145;28;20228;-74
2023/09/01 03:35:23;;;;;;;6.63;4.67;;;;;;;13.46;93.88;100126.34;5050580;28;20216;-75
2023/09/01 03:37:50;;;;;;;5.17;4.77;;;;;;;13.41;94.09;100120.41;5051549;28;20232;-75
2023/09/01 03:40:18;;;;;;;4.87;4.47;;;;;;;13.42;94.08;100132.59;5051668;28;20204;-74
2023/09/01 03:42:44;;;;;;;5.77;4.73;;;;;;;13.38;93.90;100136.25;5052621;28;20706;-75
2023/09/01 03:45:11;;;;;;;5.20;4.50;;;;;;;13.37;94.31;100137.16;5055243;28;20211;-75
2023/09/01 03:47:37;;;;;;;6.37;5.07;;;;;;;13.37;94.44;100131.91;5054984;28;20209;-75
2023/09/01 03:50:05;;;;;;;4.70;4.33;;;;;;;13.33;93.79;100132.91;5055012;28;20213;-75
2023/09/01 03:52:31;;;;;;;4.80;4.40;;;;;;;13.29;93.75;100134.78;5054858;28;20739;-75
2023/09/01 03:54:58;;;;;;;4.53;4.23;;;;;;;13.24;94.32;100122.72;5054612;28;20217;-75
2023/09/01 03:57:26;;;;;;;6.60;5.43;;;;;;;13.23;93.72;100139.38;5054491;28;20466;-75
2023/09/01 03:59:52;;;;;;;4.97;4.67;;;;;;;13.18;93.38;100150.03;5055040;28;20670;-75
2023/09/01 04:02:19;;;;;;;7.90;4.87;;;;;;;13.21;93.57;100155.16;5054783;28;20237;-75
2023/09/01 04:04:45;;;;;;;5.80;5.20;;;;;;;13.16;94.06;100148.34;5055136;28;20205;-75
2023/09/01 04:07:12;;;;;;;4.73;4.33;;;;;;;13.16;94.58;100133.50;5054922;28;20245;-75
2023/09/01 04:09:38;;;;;;;5.37;4.97;;;;;;;13.18;94.58;100129.06;5054850;28;20224;-75
2023/09/01 04:12:06;;;;;;;5.57;5.07;;;;;;;13.20;94.66;100119.38;5054369;28;20235;-75
2023/09/01 04:14:34;;;;;;;6.53;5.93;;;;;;;13.18;95.16;100118.56;5054651;28;20215;-75
2023/09/01 04:17:00;;;;;;;6.83;6.33;;;;;;;13.21;94.70;100118.44;5054844;28;20209;-75
2023/09/01 04:19:27;;;;;;;6.60;6.10;;;;;;;13.23;94.83;100121.03;5054343;28;20211;-75
2023/09/01 04:21:53;;;;;;;6.00;5.60;;;;;;;13.20;94.81;100126.34;5054478;28;20768;-75
2023/09/01 04:24:20;;;;;;;5.87;5.40;;;;;;;13.22;94.28;100132.41;5054375;28;20215;-75
2023/09/01 04:26:46;;;;;;;5.57;5.17;;;;;;;13.18;93.95;100142.16;5054461;28;20211;-75
2023/09/01 04:29:14;;;;;;;5.30;4.90;;;;;;;13.16;94.05;100140.47;5054289;28;20693;-75
2023/09/01 04:31:42;;;;;;;5.30;4.90;;;;;;;13.16;93.38;100151.84;5054401;28;20203;-75
2023/09/01 04:34:08;;;;;;;5.90;5.50;;;;;;;13.08;93.57;100170.44;5054490;28;20223;-75
2023/09/01 04:36:36;;;;;;;7.77;5.63;;;;;;;13.04;93.51;100166.22;5054386;28;20215;-75
2023/09/01 04:39:04;;;;;;;5.30;4.80;;;;;;;13.07;92.90;100175.72;5054153;28;20225;-75
2023/09/01 04:41:31;;;;;;;5.10;4.57;;;;;;;13.05;92.69;100182.78;5054301;28;20204;-75
2023/09/01 04:43:58;;;;;;;5.03;4.53;;;;;;;13.03;93.18;100184.59;5054353;28;20258;-75
2023/09/01 04:46:25;;;;;;;5.70;5.30;;;;;;;12.96;93.01;100185.69;5053786;28;20223;-75
2023/09/01 04:48:52;;;;;;;4.37;4.07;;;;;;;12.94;93.21;100182.28;5054062;28;20224;-75
2023/09/01 04:51:19;;;;;;;5.30;4.80;;;;;;;12.93;92.94;100189.28;5054021;28;20219;-75
2023/09/01 04:53:45;;;;;;;4.63;4.33;;;;;;;12.91;94.14;100178.84;5053331;28;20228;-75
2023/09/01 04:56:12;;;;;;;4.83;4.20;;;;;;;12.95;93.38;100177.00;5054077;28;20211;-75
2023/09/01 04:58:39;;;;;;;4.50;4.10;;;;;;;13.00;93.27;100179.44;5053534;28;20710;-75
2023/09/01 05:01:06;;;;;;;4.73;4.20;;;;;;;12.99;93.39;100177.75;5053601;28;20211;-75
2023/09/01 05:03:32;;;;;;;4.70;4.30;;;;;;;13.07;93.71;100180.97;5053687;28;20232;-75
2023/09/01 05:06:01;;;;;;;4.50;4.20;;;;;;;13.04;94.01;100168.84;5053486;28;20208;-75
2023/09/01 05:08:27;;;;;;;4.77;4.23;;;;;;;13.05;94.03;100170.53;5053864;28;20204;-75
2023/09/01 05:10:54;;;;;;;4.10;3.70;;;;;;;13.06;94.44;100164.41;5053665;28;20204;-75
2023/09/01 05:13:20;;;;;;;4.33;4.03;;;;;;;13.11;94.63;100156.38;5053618;28;20239;-75
2023/09/01 05:15:48;;;;;;;3.97;3.67;;;;;;;13.11;95.04;100154.59;5053751;28;20262;-75
2023/09/01 05:18:16;;;;;;;6.27;3.60;;;;;;;13.14;95.47;100150.16;5053164;28;20701;-75
2023/09/01 05:20:43;;;;;;;4.87;3.60;;;;;;;13.14;95.85;100143.19;5053677;28;20203;-75
2023/09/01 05:23:11;;;;;;;4.87;3.93;;;;;;;13.18;95.83;100123.81;5053196;28;20241;-75
2023/09/01 05:25:37;;;;;;;3.63;3.33;;;;;;;13.24;96.44;100126.22;5053192;28;20554;-75
2023/09/01 05:28:04;;;;;;;4.23;3.83;;;;;;;13.28;96.08;100116.50;5053129;28;20202;-75
2023/09/01 05:30:31;;;;;;;4.03;3.63;;;;;;;13.34;96.97;100112.81;5053285;28;20204;-75
2023/09/01 05:32:57;;;;;;;4.17;3.77;;;;;;;13.40;97.60;100105.59;5053039;28;20227;-75
2023/09/01 05:35:24;;;;;;;5.00;3.87;;;;;;;13.45;97.94;100092.31;5053245;28;20207;-75
2023/09/01 05:37:50;;;;;;;3.67;3.07;;;;;;;13.49;98.30;100086.88;5053069;28;20232;-75
2023/09/01 05:40:19;;;;;;;4.43;3.37;;;;;;;13.53;98.64;100079.75;5053292;28;20205;-75
2023/09/01 05:42:45;;;;;;;5.27;4.00;;;;;;;13.52;99.39;100059.72;5052461;28;20228;-75
2023/09/01 05:45:12;;;;;;;4.10;3.70;;;;;;;13.52;100.00;100049.22;5053000;28;20273;-75
2023/09/01 05:47:38;;;;;;;6.13;3.80;;;;;;;13.55;100.00;100035.13;5053165;28;20208;-75
2023/09/01 05:50:05;;;;;;;4.90;3.30;;;;;;;13.62;100.00;100047.13;5053157;28;20220;-75
2023/09/01 05:52:31;;;;;;;3.60;3.30;;;;;;;13.66;100.00;100051.31;5051492;28;20236;-75
2023/09/01 05:54:58;;;;;;;3.90;3.50;;;;;;;13.73;99.38;100062.44;5052798;28;20557;-75
2023/09/01 05:57:26;;;;;;;4.13;3.80;;;;;;;13.74;99.41;100072.03;5052512;28;20211;-75
2023/09/01 05:59:52;;;;;;;3.93;3.70;;;;;;;13.76;99.64;100075.44;5052587;28;20226;-75
2023/09/01 06:02:19;;;;;;;4.03;3.77;;;;;;;13.79;99.66;100077.94;5052835;28;20230;-76
2023/09/01 06:04:45;;;;;;;5.53;5.03;;;;;;;13.84;99.57;100076.00;5052078;28;20212;-75
2023/09/01 06:07:12;;;;;;;5.50;5.10;;;;;;;13.85;99.62;100081.16;5052460;28;20210;-75
2023/09/01 06:09:39;;;;;;;5.93;5.43;;;;;;;13.83;99.76;100082.16;5052733;28;20560;-75
2023/09/01 06:12:06;;;;;;;5.97;5.47;;;;;;;13.82;100.00;100060.31;5052421;28;20675;-75
2023/09/01 06:14:34;;;;;;;5.97;5.47;;;;;;;13.86;100.00;100055.81;5052257;28;20224;-75
2023/09/01 06:17:01;;;;;;;5.20;4.80;;;;;;;13.92;100.00;100062.59;5052540;28;20207;-75
2023/09/01 06:19:27;;;;;;;4.83;4.43;;;;;;;14.00;100.00;100064.00;5052073;28;20259;-75
2023/09/01 06:21:54;;;;;;;4.63;4.23;;;;;;;14.02;100.00;100062.16;5052017;28;20240;-75
2023/09/01 06:24:20;;;;;;;4.37;3.97;;;;;;;14.05;100.00;100062.06;5052211;28;20214;-75
2023/09/01 06:26:47;;;;;;;4.20;3.77;;;;;;;14.08;100.00;100046.16;5052245;28;20204;-75
2023/09/01 06:29:13;;;;;;;3.73;3.40;;;;;;;14.13;100.00;100030.22;5052084;28;20208;-75
2023/09/01 06:31:41;;;;;;;4.93;3.73;;;;;;;14.18;100.00;100032.69;5052187;28;20224;-75
2023/09/01 06:34:08;;;;;;;5.47;4.97;;;;;;;14.23;100.00;100034.22;5052260;28;20214;-75
2023/09/01 06:36:34;;;;;;;4.70;4.30;;;;;;;14.24;99.48;100083.16;5052241;28;20227;-75
2023/09/01 06:39:01;;;;;;;4.80;4.40;;;;;;;14.27;97.91;100119.81;5052118;28;20258;-75
2023/09/01 06:41:27;;;;;;;4.50;4.10;;;;;;;14.41;99.08;100123.63;5051990;28;20205;-75
2023/09/01 06:43:54;;;;;;;4.63;3.90;;;;;;;14.55;99.03;100129.22;5051811;28;20263;-75
2023/09/01 06:46:21;;;;;;;6.00;4.03;;;;;;;14.62;99.22;100122.81;5051954;28;20213;-75
2023/09/01 06:48:48;;;;;;;4.60;3.43;;;;;;;14.64;99.00;100122.75;5051938;28;20206;-75
2023/09/01 06:51:15;;;;;;;4.33;3.93;;;;;;;14.54;98.89;100130.13;5051946;28;20214;-75
2023/09/01 06:53:41;;;;;;;4.57;4.17;;;;;;;14.64;97.43;100160.38;5051765;28;20607;-75
2023/09/01 06:56:08;;;;;;;5.57;4.43;;;;;;;14.74;95.90;100181.03;5051818;28;20214;-75
2023/09/01 06:58:34;;;;;;;4.47;4.10;;;;;;;14.85;97.25;100177.06;5051918;28;20234;-75
2023/09/01 07:01:07;;;;;;;4.77;4.27;;;;;;;14.94;97.07;100181.06;5051992;28;20200;-75
2023/09/01 07:03:33;;;;;;;4.23;3.73;;;;;;;14.99;98.50;100173.00;5051693;28;20740;-75
2023/09/01 07:06:01;;;;;;;5.00;4.60;;;;;;;14.92;96.46;100196.03;5051822;28;20216;-75
2023/09/01 07:08:29;;;;;;;4.97;4.23;;;;;;;14.91;96.24;100209.28;5051651;28;20208;-75
2023/09/01 07:11:00;;;;;;;5.07;4.43;;;;;;;14.87;96.82;100206.75;5051043;28;20217;-75
2023/09/01 07:13:27;;;;;;;4.70;4.30;;;;;;;14.95;96.46;100203.81;5071439;28;20238;-75
2023/09/01 07:15:53;;;;;;;4.57;4.17;;;;;;;14.99;96.10;100208.03;5071855;28;20207;-76
2023/09/01 07:18:21;;;;;;;4.17;3.83;;;;;;;14.95;95.81;100219.59;5075611;28;20245;-76
2023/09/01 07:20:48;;;;;;;5.47;3.80;;;;;;;15.08;95.38;100225.19;5075909;28;20211;-75
2023/09/01 07:23:16;;;;;;;4.23;3.20;;;;;;;15.03;93.39;100248.19;5075470;28;20243;-75
2023/09/01 07:25:44;;;;;;;6.00;3.57;;;;;;;15.21;93.32;100262.38;5076098;28;20215;-75
2023/09/01 07:28:11;;;;;;;5.67;3.97;;;;;;;15.21;93.87;100252.69;5075566;28;20280;-75
2023/09/01 07:30:37;;;;;;;4.90;3.43;;;;;;;15.17;93.76;100258.16;5075688;28;20228;-75
2023/09/01 07:33:04;;;;;;;5.23;3.63;;;;;;;15.29;94.59;100252.38;5075389;28;20220;-76
2023/09/01 07:35:31;;;;;;;5.07;3.80;;;;;;;15.33;92.78;100276.78;5075676;28;20728;-75
2023/09/01 07:37:58;;;;;;;4.17;3.50;;;;;;;15.37;92.22;100292.38;5068961;28;20204;-75
2023/09/01 07:40:27;;;;;;;5.53;3.13;;;;;;;15.40;90.39;100321.19;5055239;28;20228;-75
2023/09/01 07:42:54;;;;;;;3.20;2.97;;;;;;;15.51;90.94;100338.28;5055114;28;20261;-75
2023/09/01 07:45:20;;;;;;;4.70;3.57;;;;;;;15.52;90.83;100343.50;5055360;28;20212;-75
2023/09/01 07:47:47;;;;;;;5.50;3.67;;;;;;;15.57;91.58;100331.00;5055070;28;20215;-75
2023/09/01 07:50:13;;;;;;;4.90;3.20;;;;;;;15.64;92.69;100321.09;5055120;28;20208;-75
2023/09/01 07:52:40;;;;;;;3.80;2.93;;;;;;;15.74;92.66;100309.28;5054764;28;20239;-76
2023/09/01 07:55:07;;;;;;;4.07;3.60;;;;;;;15.82;91.19;100325.59;5055210;28;20220;-76
2023/09/01 07:57:35;;;;;;;3.47;3.13;;;;;;;15.79;90.79;100348.56;5054876;28;20215;-76
2023/09/01 08:00:05;;;;;;;3.23;2.93;;;;;;;15.96;90.77;100346.06;5054485;28;20240;-75
2023/09/01 08:02:32;;;;;;;3.63;3.20;;;;;;;15.97;90.24;100347.78;5054760;28;20630;-76
2023/09/01 08:04:58;;;;;;;3.97;3.07;;;;;;;16.05;90.27;100343.06;5055009;28;20303;-76
2023/09/01 08:07:25;;;;;;;3.33;3.03;;;;;;;16.21;90.22;100359.06;5054809;28;20571;-76
2023/09/01 08:09:51;;;;;;;3.37;3.13;;;;;;;16.16;87.13;100403.16;5055037;28;20209;-75
2023/09/01 08:12:18;;;;;;;4.53;3.50;;;;;;;16.24;87.10;100435.28;5054596;28;20232;-76
2023/09/01 08:14:46;;;;;;;6.37;3.33;;;;;;;16.24;86.14;100432.66;5054666;28;20222;-76
2023/09/01 08:17:12;;;;;;;4.90;3.20;;;;;;;16.26;86.71;100438.69;5054663;28;20213;-76
2023/09/01 08:19:40;;;;;;;3.60;3.00;;;;;;;16.40;87.84;100414.41;5055004;28;20239;-76
2023/09/01 08:22:06;;;;;;;5.83;4.10;;;;;;;16.36;87.36;100410.19;5054702;28;20226;-76
2023/09/01 08:24:33;;;;;;;5.07;3.60;;;;;;;16.45;84.47;100470.41;5054567;28;20209;-76
2023/09/01 08:27:01;;;;;;;5.10;2.97;;;;;;;16.50;85.66;100474.63;5054619;28;20593;-76
2023/09/01 08:29:30;;;;;;;3.30;2.90;;;;;;;16.63;85.72;100452.06;5053683;28;20897;-76
2023/09/01 08:32:00;;;;;;;7.83;3.50;;;;;;;16.73;85.72;100447.22;5054409;28;20240;-76
2023/09/01 08:34:27;;;;;;;3.87;3.07;;;;;;;16.79;84.51;100470.72;5054396;28;20201;-76
2023/09/01 08:36:54;;;;;;;4.53;3.10;;;;;;;16.82;83.39;100511.00;5054501;28;20197;-76
2023/09/01 08:39:20;;;;;;;3.97;3.13;;;;;;;16.77;81.58;100544.59;5054016;28;20228;-76
2023/09/01 08:41:50;;;;;;;3.43;3.13;;;;;;;16.93;82.62;100536.91;5053921;28;20201;-76
2023/09/01 08:44:20;;;;;;;5.27;3.30;;;;;;;16.96;82.88;100526.19;5054256;28;20301;-76
2023/09/01 08:46:48;;;;;;;4.80;3.60;;;;;;;17.09;81.81;100546.78;5054161;28;20234;-75
2023/09/01 08:49:16;;;;;;;3.53;3.20;;;;;;;17.09;80.94;100537.09;5054171;28;20202;-76
2023/09/01 08:51:46;;;;;;;3.67;3.30;;;;;;;17.27;81.53;100562.63;5053794;28;20579;-76
2023/09/01 08:54:15;;;;;;;3.97;3.20;;;;;;;17.29;81.60;100553.81;5053643;28;20684;-76
2023/09/01 08:56:41;;;;;;;4.67;3.50;;;;;;;17.33;78.98;100598.44;5054243;28;20209;-76
2023/09/01 08:59:11;;;;;;;4.63;3.20;;;;;;;17.35;79.58;100624.78;5053848;28;20790;-75
2023/09/01 09:01:41;;;;;;;3.43;2.70;;;;;;;17.44;79.37;100595.31;5054314;28;20209;-76
2023/09/01 09:04:10;;;;;;;3.43;3.03;;;;;;;17.55;78.16;100624.72;5054074;28;20205;-73
2023/09/01 09:06:42;;;;;;;4.73;3.13;;;;;;;17.48;76.42;100673.44;5054260;28;20202;-76
2023/09/01 09:09:14;;;;;;;5.40;3.60;;;;;;;17.56;76.11;100673.09;5054180;28;20204;-75
2023/09/01 09:11:57;;;;;;;3.23;2.80;;;;;;;17.57;75.52;100702.06;5053902;28;20279;-75
2023/09/01 09:14:27;;;;;;;4.73;3.47;;;;;;;17.71;76.15;100711.16;5053922;28;20225;-75
2023/09/01 09:16:55;;;;;;;5.37;3.40;;;;;;;17.78;76.50;100704.66;5053966;28;20197;-75
2023/09/01 09:19:23;;;;;;;4.40;3.70;;;;;;;17.69;75.39;100721.78;5053422;28;20321;-75
2023/09/01 09:22:04;;;;;;;5.13;3.20;;;;;;;17.88;76.01;100710.44;5053173;28;20253;-75
2023/09/01 09:24:36;;;;;;;5.40;3.77;;;;;;;17.95;75.37;100714.53;5053539;28;20722;-75
2023/09/01 09:27:05;;;;;;;4.37;2.97;;;;;;;17.89;75.55;100713.00;5053406;28;20270;-75
2023/09/01 09:29:39;;;;;;;3.83;2.93;;;;;;;18.02;75.03;100715.97;5053292;28;20735;-75
2023/09/01 09:32:16;;;;;;;3.67;2.63;;;;;;;18.03;73.00;100731.72;5053428;28;20287;-75
2023/09/01 09:34:42;;;;;;;4.97;2.80;;;;;;;18.24;73.80;100739.63;5053673;28;20193;-75
2023/09/01 09:37:16;;;;;;;4.60;2.70;;;;;;;18.36;76.19;100693.25;5053188;28;20577;-76
2023/09/01 09:39:43;;;;;;;4.03;2.93;;;;;;;18.33;72.93;100715.38;5052521;28;20226;-76
2023/09/01 09:42:09;;;;;;;5.43;2.50;;;;;;;18.28;71.71;100788.75;5052710;28;20229;-76
2023/09/01 09:44:36;;;;;;;3.97;2.33;;;;;;;18.38;71.66;100816.47;5053319;28;20296;-75
2023/09/01 09:47:09;;;;;;;3.17;2.33;;;;;;;18.45;71.56;100825.84;5053306;28;20207;-75
2023/09/01 09:49:37;;;;;;;2.33;2.10;;;;;;;18.60;70.26;100868.38;5052814;28;20202;-75
2023/09/01 09:52:08;;;;;;;3.00;2.30;;;;;;;18.74;70.34;100867.75;5052976;28;20230;-75
2023/09/01 09:54:38;;;;;;;4.67;2.63;;;;;;;18.57;70.81;100829.72;5053003;28;20217;-75
2023/09/01 09:57:07;;;;;;;3.67;2.70;;;;;;;18.88;70.48;100864.50;5052792;28;20207;-75
2023/09/01 09:59:40;;;;;;;4.27;2.37;;;;;;;18.85;69.39;100887.53;5052678;28;20241;-75
2023/09/01 10:02:23;;;;;;;2.47;2.27;;;;;;;18.95;68.55;100900.28;5052907;28;20226;-75
2023/09/01 10:04:50;;;;;;;3.13;2.40;;;;;;;18.98;68.05;100919.53;5053050;28;20252;-75
2023/09/01 10:07:18;;;;;;;4.37;2.13;;;;;;;19.00;70.75;100880.63;5052615;28;20238;-76
2023/09/01 10:09:46;;;;;;;2.20;1.93;;;;;;;19.01;68.17;100905.34;5052578;28;20206;-75
2023/09/01 10:12:13;;;;;;;3.87;2.20;;;;;;;19.21;69.70;100883.22;5052254;28;20230;-75
2023/09/01 10:14:42;;;;;;;2.90;2.03;;;;;;;18.92;69.51;100879.28;5052574;28;20211;-75
2023/09/01 10:17:10;;;;;;;2.47;2.27;;;;;;;19.03;71.05;100854.06;5052561;28;20207;-78
2023/09/01 10:19:37;;;;;;;4.20;2.10;;;;;;;18.95;69.46;100863.25;5052382;28;20230;-76
2023/09/01 10:22:04;;;;;;;2.37;2.17;;;;;;;18.89;69.83;100871.50;5052443;28;20234;-75
2023/09/01 10:24:31;;;;;;;4.93;2.70;;;;;;;19.09;70.49;100852.91;5052209;28;20294;-75
2023/09/01 10:27:09;;;;;;;3.67;2.30;;;;;;;19.26;71.41;100846.78;5052219;28;20680;-75
2023/09/01 10:29:36;;;;;;;2.37;1.93;;;;;;;19.22;69.79;100846.06;5052277;28;20202;-76
2023/09/01 10:32:27;;;;;;;9.20;2.90;;;;;;;19.54;73.08;100803.06;5051919;28;20716;-75
2023/09/01 10:34:56;;;;;;;3.10;2.47;;;;;;;19.71;72.25;100773.06;5049764;28;20219;-75
2023/09/01 10:37:27;;;;;;;2.87;1.80;;;;;;;19.69;71.46;100796.97;5051924;28;20215;-75
2023/09/01 10:39:53;;;;;;;3.33;1.67;;;;;;;19.74;69.12;100874.47;5051992;28;20228;-75
2023/09/01 10:42:39;;;;;;;3.80;1.80;;;;;;;19.89;70.63;100834.88;5051862;28;20233;-76
2023/09/01 10:45:09;;;;;;;3.57;1.87;;;;;;;19.81;69.05;100865.25;5051957;28;20212;-76
2023/09/01 10:47:45;;;;;;;2.37;1.70;;;;;;;19.65;68.92;100898.72;5051985;28;20207;-75
2023/09/01 10:50:12;;;;;;;2.67;1.90;;;;;;;19.82;69.96;100868.75;5051990;28;20681;-75
2023/09/01 10:52:41;;;;;;;4.07;1.60;;;;;;;19.83;70.08;100873.13;5051483;28;20270;-76
2023/09/01 10:55:09;;;;;;;2.80;1.40;;;;;;;19.97;70.62;100854.72;5051741;28;20208;-75
2023/09/01 10:57:42;;;;;;;1.60;1.50;;;;;;;19.85;70.32;100823.56;5051677;28;20237;-76
2023/09/01 11:00:28;;;;;;;1.50;1.40;;;;;;;19.97;71.21;100835.34;5052150;28;20281;-76
2023/09/01 11:03:28;;;;;;;2.60;1.40;;;;;;;20.09;71.72;100813.47;5051578;28;20227;-76
2023/09/01 11:05:55;;;;;;;2.90;1.60;;;;;;;20.03;70.84;100816.47;5051696;28;20257;-75
2023/09/01 11:08:22;;;;;;;2.00;1.70;;;;;;;20.01;71.05;100805.09;5051418;28;20218;-76
2023/09/01 11:10:48;;;;;;;1.60;1.50;;;;;;;19.95;70.59;100810.72;5051611;28;20207;-76
2023/09/01 11:13:18;;;;;;;1.80;1.30;;;;;;;19.98;70.81;100797.28;5051253;28;20233;-75
2023/09/01 11:15:46;;;;;;;1.57;1.17;;;;;;;19.85;72.08;100789.13;5051567;28;20222;-75
2023/09/01 11:18:19;;;;;;;1.30;1.20;;;;;;;19.60;71.74;100803.63;5051327;28;20727;-76
2023/09/01 11:20:47;;;;;;;1.30;1.20;;;;;;;19.45;71.48;100797.28;5046683;28;20244;-76
2023/09/01 11:23:18;;;;;;;2.03;1.40;;;;;;;19.67;72.04;100772.38;5041512;28;20642;-75
2023/09/01 11:25:45;;;;;;;2.37;1.27;;;;;;;19.63;71.49;100768.16;5043363;28;20211;-75
2023/09/01 11:28:13;;;;;;;2.57;1.40;;;;;;;19.65;72.40;100764.50;5051414;28;20211;-76